sensor_id;sensor_type;location;lat;lon;timestamp;temperature;humidity
6520;DHT22;3293;51.690;5.982;2022-11-18T00:04:35;8.50;99.90
6520;DHT22;3293;51.690;5.982;2022-11-18T00:09:35;8.40;99.90
6520;DHT22;3293;51.690;5.982;2022-11-18T00:14:34;8.40;99.90
6520;DHT22;3293;51.690;5.982;2022-11-18T00:19:36;8.30;99.90
6520;DHT22;3293;51.690;5.982;2022-11-18T00:24:36;8.20;99.90
6520;DHT22;3293;51.690;5.982;2022-11-18T00:29:36;8.10;99.90
6520;DHT22;3293;51.690;5.982;2022-11-18T00:34:36;8.00;99.90
6520;DHT22;3293;51.690;5.982;2022-11-18T00:39:36;8.00;99.90
6520;DHT22;3293;51.690;5.982;2022-11-18T00:44:36;7.90;99.90
6520;DHT22;3293;51.690;5.982;2022-11-18T00:49:36;7.90;99.90
6520;DHT22;3293;51.690;5.982;2022-11-18T00:54:36;8.00;99.90
6520;DHT22;3293;51.690;5.982;2022-11-18T00:59:36;8.10;99.90
6520;DHT22;3293;51.690;5.982;2022-11-18T01:04:35;8.30;99.90
6520;DHT22;3293;51.690;5.982;2022-11-18T01:09:35;8.40;99.90
6520;DHT22;3293;51.690;5.982;2022-11-18T01:14:35;8.40;99.90
6520;DHT22;3293;51.690;5.982;2022-11-18T01:19:36;8.40;99.90
6520;DHT22;3293;51.690;5.982;2022-11-18T01:24:36;8.50;99.90
6520;DHT22;3293;51.690;5.982;2022-11-18T01:29:35;8.60;99.90
6520;DHT22;3293;51.690;5.982;2022-11-18T01:34:35;8.70;99.90
6520;DHT22;3293;51.690;5.982;2022-11-18T01:39:35;8.80;99.90
6520;DHT22;3293;51.690;5.982;2022-11-18T01:44:58;8.80;99.90
6520;DHT22;3293;51.690;5.982;2022-11-18T01:49:59;8.80;99.90
6520;DHT22;3293;51.690;5.982;2022-11-18T01:55:04;8.90;99.90
6520;DHT22;3293;51.690;5.982;2022-11-18T02:00:05;8.80;99.90
6520;DHT22;3293;51.690;5.982;2022-11-18T02:05:07;8.80;99.90
6520;DHT22;3293;51.690;5.982;2022-11-18T02:10:17;8.80;99.90
6520;DHT22;3293;51.690;5.982;2022-11-18T02:15:32;8.80;99.90
6520;DHT22;3293;51.690;5.982;2022-11-18T02:20:38;8.80;99.90
6520;DHT22;3293;51.690;5.982;2022-11-18T02:26:14;8.80;99.90
6520;DHT22;3293;51.690;5.982;2022-11-18T02:36:33;8.80;99.90
6520;DHT22;3293;51.690;5.982;2022-11-18T02:41:36;8.90;99.90
6520;DHT22;3293;51.690;5.982;2022-11-18T02:46:39;8.90;99.90
6520;DHT22;3293;51.690;5.982;2022-11-18T02:51:40;8.80;99.90
6520;DHT22;3293;51.690;5.982;2022-11-18T02:56:42;8.80;99.90
6520;DHT22;3293;51.690;5.982;2022-11-18T03:01:42;8.90;99.90
6520;DHT22;3293;51.690;5.982;2022-11-18T03:06:49;8.90;99.90
6520;DHT22;3293;51.690;5.982;2022-11-18T03:12:02;8.90;99.90
6520;DHT22;3293;51.690;5.982;2022-11-18T03:28:05;8.80;99.90
6520;DHT22;3293;51.690;5.982;2022-11-18T03:33:09;8.70;99.90
6520;DHT22;3293;51.690;5.982;2022-11-18T03:38:14;8.70;99.90
6520;DHT22;3293;51.690;5.982;2022-11-18T03:43:21;8.80;99.90
6520;DHT22;3293;51.690;5.982;2022-11-18T03:48:27;8.80;99.90
6520;DHT22;3293;51.690;5.982;2022-11-18T03:53:31;8.70;99.90
6520;DHT22;3293;51.690;5.982;2022-11-18T03:58:56;8.80;99.90
6520;DHT22;3293;51.690;5.982;2022-11-18T04:03:58;8.80;99.90
6520;DHT22;3293;51.690;5.982;2022-11-18T04:09:02;8.80;99.90
6520;DHT22;3293;51.690;5.982;2022-11-18T04:14:03;8.80;99.90
6520;DHT22;3293;51.690;5.982;2022-11-18T04:19:05;8.80;99.90
6520;DHT22;3293;51.690;5.982;2022-11-18T04:24:06;8.90;99.90
6520;DHT22;3293;51.690;5.982;2022-11-18T04:29:06;8.80;99.90
6520;DHT22;3293;51.690;5.982;2022-11-18T04:34:05;8.80;99.90
6520;DHT22;3293;51.690;5.982;2022-11-18T04:39:05;8.80;99.90
6520;DHT22;3293;51.690;5.982;2022-11-18T04:44:05;8.80;99.90
6520;DHT22;3293;51.690;5.982;2022-11-18T04:49:13;8.80;99.90
6520;DHT22;3293;51.690;5.982;2022-11-18T04:54:13;8.80;99.90
6520;DHT22;3293;51.690;5.982;2022-11-18T04:59:15;8.80;99.90
6520;DHT22;3293;51.690;5.982;2022-11-18T05:04:18;8.80;99.90
6520;DHT22;3293;51.690;5.982;2022-11-18T05:09:19;8.80;99.90
6520;DHT22;3293;51.690;5.982;2022-11-18T05:14:19;8.80;99.90
6520;DHT22;3293;51.690;5.982;2022-11-18T05:19:20;8.80;99.90
6520;DHT22;3293;51.690;5.982;2022-11-18T05:24:20;8.80;99.90
6520;DHT22;3293;51.690;5.982;2022-11-18T05:29:22;8.80;99.90
6520;DHT22;3293;51.690;5.982;2022-11-18T05:34:22;8.80;99.90
6520;DHT22;3293;51.690;5.982;2022-11-18T05:39:22;8.80;99.90
6520;DHT22;3293;51.690;5.982;2022-11-18T05:44:22;8.80;99.90
6520;DHT22;3293;51.690;5.982;2022-11-18T05:49:22;8.80;99.90
6520;DHT22;3293;51.690;5.982;2022-11-18T05:54:22;8.70;99.90
6520;DHT22;3293;51.690;5.982;2022-11-18T05:59:23;8.60;99.90
6520;DHT22;3293;51.690;5.982;2022-11-18T06:04:48;8.50;99.90
6520;DHT22;3293;51.690;5.982;2022-11-18T06:09:52;8.40;99.90
6520;DHT22;3293;51.690;5.982;2022-11-18T06:14:58;8.30;99.90
6520;DHT22;3293;51.690;5.982;2022-11-18T06:19:59;8.30;99.90
6520;DHT22;3293;51.690;5.982;2022-11-18T06:25:00;8.30;99.90
6520;DHT22;3293;51.690;5.982;2022-11-18T06:30:01;8.10;99.90
6520;DHT22;3293;51.690;5.982;2022-11-18T06:35:01;7.90;99.90
6520;DHT22;3293;51.690;5.982;2022-11-18T06:40:01;7.70;99.90
6520;DHT22;3293;51.690;5.982;2022-11-18T06:45:03;7.60;99.90
6520;DHT22;3293;51.690;5.982;2022-11-18T06:50:03;7.40;99.90
6520;DHT22;3293;51.690;5.982;2022-11-18T06:55:03;7.30;99.90
6520;DHT22;3293;51.690;5.982;2022-11-18T07:00:07;7.20;99.90
6520;DHT22;3293;51.690;5.982;2022-11-18T07:05:07;7.20;99.90
6520;DHT22;3293;51.690;5.982;2022-11-18T07:10:07;7.10;99.90
6520;DHT22;3293;51.690;5.982;2022-11-18T07:15:07;7.10;99.90
6520;DHT22;3293;51.690;5.982;2022-11-18T07:20:08;7.10;99.90
6520;DHT22;3293;51.690;5.982;2022-11-18T07:25:08;7.00;99.90
6520;DHT22;3293;51.690;5.982;2022-11-18T07:30:09;7.00;99.90
6520;DHT22;3293;51.690;5.982;2022-11-18T07:35:09;7.00;99.90
6520;DHT22;3293;51.690;5.982;2022-11-18T07:40:09;7.00;99.90
6520;DHT22;3293;51.690;5.982;2022-11-18T07:45:12;6.90;99.90
6520;DHT22;3293;51.690;5.982;2022-11-18T07:50:15;7.00;99.90
6520;DHT22;3293;51.690;5.982;2022-11-18T07:55:16;7.00;99.90
6520;DHT22;3293;51.690;5.982;2022-11-18T08:00:17;7.20;99.90
6520;DHT22;3293;51.690;5.982;2022-11-18T08:05:18;7.30;99.90
6520;DHT22;3293;51.690;5.982;2022-11-18T08:10:18;7.40;99.90
6520;DHT22;3293;51.690;5.982;2022-11-18T08:15:18;7.50;99.90
6520;DHT22;3293;51.690;5.982;2022-11-18T08:20:18;7.70;99.90
6520;DHT22;3293;51.690;5.982;2022-11-18T08:25:19;7.80;99.90
6520;DHT22;3293;51.690;5.982;2022-11-18T08:30:20;7.90;99.90
6520;DHT22;3293;51.690;5.982;2022-11-18T08:35:20;8.10;99.90
6520;DHT22;3293;51.690;5.982;2022-11-18T08:40:20;8.20;99.90
6520;DHT22;3293;51.690;5.982;2022-11-18T08:45:20;8.20;99.90
6520;DHT22;3293;51.690;5.982;2022-11-18T08:50:20;8.10;99.90
6520;DHT22;3293;51.690;5.982;2022-11-18T08:55:20;8.10;99.90
6520;DHT22;3293;51.690;5.982;2022-11-18T09:00:20;8.10;99.90
6520;DHT22;3293;51.690;5.982;2022-11-18T09:05:19;8.10;99.90
6520;DHT22;3293;51.690;5.982;2022-11-18T09:10:19;8.20;99.90
6520;DHT22;3293;51.690;5.982;2022-11-18T09:15:19;8.40;99.90
6520;DHT22;3293;51.690;5.982;2022-11-18T09:20:19;8.60;99.90
6520;DHT22;3293;51.690;5.982;2022-11-18T09:25:19;8.70;99.90
6520;DHT22;3293;51.690;5.982;2022-11-18T09:30:19;8.80;99.90
6520;DHT22;3293;51.690;5.982;2022-11-18T09:35:19;9.00;99.90
6520;DHT22;3293;51.690;5.982;2022-11-18T09:40:18;9.20;99.90
6520;DHT22;3293;51.690;5.982;2022-11-18T09:45:32;9.20;99.90
6520;DHT22;3293;51.690;5.982;2022-11-18T09:50:33;9.40;99.90
6520;DHT22;3293;51.690;5.982;2022-11-18T09:55:38;9.40;99.90
6520;DHT22;3293;51.690;5.982;2022-11-18T10:00:41;9.40;99.90
6520;DHT22;3293;51.690;5.982;2022-11-18T10:05:52;9.40;99.90
6520;DHT22;3293;51.690;5.982;2022-11-18T10:11:18;9.50;99.90
6520;DHT22;3293;51.690;5.982;2022-11-18T10:16:48;9.60;99.90
6520;DHT22;3293;51.690;5.982;2022-11-18T10:27:07;10.10;99.90
6520;DHT22;3293;51.690;5.982;2022-11-18T10:32:16;10.40;99.90
6520;DHT22;3293;51.690;5.982;2022-11-18T10:37:27;10.60;99.90
6520;DHT22;3293;51.690;5.982;2022-11-18T10:42:36;10.90;99.90
6520;DHT22;3293;51.690;5.982;2022-11-18T10:47:39;11.20;99.90
6520;DHT22;3293;51.690;5.982;2022-11-18T10:52:51;11.30;99.90
6520;DHT22;3293;51.690;5.982;2022-11-18T10:58:13;11.20;99.90
6520;DHT22;3293;51.690;5.982;2022-11-18T11:03:22;11.10;99.90
6520;DHT22;3293;51.690;5.982;2022-11-18T11:08:23;11.20;99.90
6520;DHT22;3293;51.690;5.982;2022-11-18T11:13:25;11.40;99.90
6520;DHT22;3293;51.690;5.982;2022-11-18T11:18:31;11.70;99.90
6520;DHT22;3293;51.690;5.982;2022-11-18T11:23:42;11.80;99.90
6520;DHT22;3293;51.690;5.982;2022-11-18T11:28:59;11.60;99.90
6520;DHT22;3293;51.690;5.982;2022-11-18T11:34:23;11.60;99.90
6520;DHT22;3293;51.690;5.982;2022-11-18T11:39:57;11.60;99.90
6520;DHT22;3293;51.690;5.982;2022-11-18T11:55:28;11.40;99.90
6520;DHT22;3293;51.690;5.982;2022-11-18T12:00:34;11.40;99.90
6520;DHT22;3293;51.690;5.982;2022-11-18T12:05:38;11.40;99.90
6520;DHT22;3293;51.690;5.982;2022-11-18T12:10:58;11.60;99.90
6520;DHT22;3293;51.690;5.982;2022-11-18T12:16:26;11.90;99.90
6520;DHT22;3293;51.690;5.982;2022-11-18T12:26:46;12.00;99.90
6520;DHT22;3293;51.690;5.982;2022-11-18T12:31:52;12.00;99.90
6520;DHT22;3293;51.690;5.982;2022-11-18T12:36:54;12.00;99.90
6520;DHT22;3293;51.690;5.982;2022-11-18T12:41:59;12.00;99.90
6520;DHT22;3293;51.690;5.982;2022-11-18T12:57:41;12.10;99.90
6520;DHT22;3293;51.690;5.982;2022-11-18T13:02:50;12.00;99.90
6520;DHT22;3293;51.690;5.982;2022-11-18T13:07:56;11.80;99.90
6520;DHT22;3293;51.690;5.982;2022-11-18T13:13:31;11.80;99.90
6520;DHT22;3293;51.690;5.982;2022-11-18T13:18:31;11.60;99.90
6520;DHT22;3293;51.690;5.982;2022-11-18T13:23:31;11.60;99.90
6520;DHT22;3293;51.690;5.982;2022-11-18T13:29:14;11.50;99.90
6520;DHT22;3293;51.690;5.982;2022-11-18T13:34:24;11.50;99.90
6520;DHT22;3293;51.690;5.982;2022-11-18T13:39:30;11.40;99.90
6520;DHT22;3293;51.690;5.982;2022-11-18T13:44:35;11.40;99.90
6520;DHT22;3293;51.690;5.982;2022-11-18T13:55:24;11.20;99.90
6520;DHT22;3293;51.690;5.982;2022-11-18T14:00:26;11.30;99.90
6520;DHT22;3293;51.690;5.982;2022-11-18T14:05:27;11.30;99.90
6520;DHT22;3293;51.690;5.982;2022-11-18T14:10:45;11.50;99.90
6520;DHT22;3293;51.690;5.982;2022-11-18T14:15:45;11.50;99.90
6520;DHT22;3293;51.690;5.982;2022-11-18T14:20:50;11.30;99.90
6520;DHT22;3293;51.690;5.982;2022-11-18T14:25:51;11.20;99.90
6520;DHT22;3293;51.690;5.982;2022-11-18T14:30:57;11.10;99.90
6520;DHT22;3293;51.690;5.982;2022-11-18T14:41:01;10.80;99.90
6520;DHT22;3293;51.690;5.982;2022-11-18T14:46:20;10.80;99.90
6520;DHT22;3293;51.690;5.982;2022-11-18T14:51:20;10.90;99.90
6520;DHT22;3293;51.690;5.982;2022-11-18T14:56:25;10.90;99.90
6520;DHT22;3293;51.690;5.982;2022-11-18T15:01:26;11.00;99.90
6520;DHT22;3293;51.690;5.982;2022-11-18T15:06:28;11.00;99.90
6520;DHT22;3293;51.690;5.982;2022-11-18T15:11:28;10.90;99.90
6520;DHT22;3293;51.690;5.982;2022-11-18T15:16:31;10.70;99.90
6520;DHT22;3293;51.690;5.982;2022-11-18T15:21:31;10.60;99.90
6520;DHT22;3293;51.690;5.982;2022-11-18T15:26:37;10.40;99.90
6520;DHT22;3293;51.690;5.982;2022-11-18T15:31:38;10.10;99.90
6520;DHT22;3293;51.690;5.982;2022-11-18T15:36:38;9.90;99.90
6520;DHT22;3293;51.690;5.982;2022-11-18T15:41:39;9.70;99.90
6520;DHT22;3293;51.690;5.982;2022-11-18T15:46:40;9.70;99.90
6520;DHT22;3293;51.690;5.982;2022-11-18T15:51:40;9.60;99.90
6520;DHT22;3293;51.690;5.982;2022-11-18T15:56:40;9.50;99.90
6520;DHT22;3293;51.690;5.982;2022-11-18T16:01:42;9.60;99.90
6520;DHT22;3293;51.690;5.982;2022-11-18T16:06:43;9.60;99.90
6520;DHT22;3293;51.690;5.982;2022-11-18T16:11:43;9.60;99.90
6520;DHT22;3293;51.690;5.982;2022-11-18T16:17:01;9.70;99.90
6520;DHT22;3293;51.690;5.982;2022-11-18T16:22:01;9.70;99.90
6520;DHT22;3293;51.690;5.982;2022-11-18T16:27:01;9.70;99.90
6520;DHT22;3293;51.690;5.982;2022-11-18T16:32:01;9.70;99.90
6520;DHT22;3293;51.690;5.982;2022-11-18T16:37:01;9.70;99.90
6520;DHT22;3293;51.690;5.982;2022-11-18T16:42:02;9.60;99.90
6520;DHT22;3293;51.690;5.982;2022-11-18T16:47:03;9.70;99.90
6520;DHT22;3293;51.690;5.982;2022-11-18T16:52:03;9.70;99.90
6520;DHT22;3293;51.690;5.982;2022-11-18T16:57:03;9.70;99.90
6520;DHT22;3293;51.690;5.982;2022-11-18T17:02:04;9.70;99.90
6520;DHT22;3293;51.690;5.982;2022-11-18T17:07:05;9.70;99.90
6520;DHT22;3293;51.690;5.982;2022-11-18T17:12:05;9.60;99.90
6520;DHT22;3293;51.690;5.982;2022-11-18T17:17:06;9.60;99.90
6520;DHT22;3293;51.690;5.982;2022-11-18T17:22:06;9.50;99.90
6520;DHT22;3293;51.690;5.982;2022-11-18T17:27:06;9.50;99.90
6520;DHT22;3293;51.690;5.982;2022-11-18T17:32:06;9.40;99.90
6520;DHT22;3293;51.690;5.982;2022-11-18T17:37:06;9.40;99.90
6520;DHT22;3293;51.690;5.982;2022-11-18T17:42:06;9.30;99.90
6520;DHT22;3293;51.690;5.982;2022-11-18T17:47:16;9.30;99.90
6520;DHT22;3293;51.690;5.982;2022-11-18T17:52:16;9.30;99.90
6520;DHT22;3293;51.690;5.982;2022-11-18T17:57:17;9.30;99.90
6520;DHT22;3293;51.690;5.982;2022-11-18T18:02:17;9.20;99.90
6520;DHT22;3293;51.690;5.982;2022-11-18T18:07:20;9.00;99.90
6520;DHT22;3293;51.690;5.982;2022-11-18T18:12:19;8.90;99.90
6520;DHT22;3293;51.690;5.982;2022-11-18T18:17:38;8.70;99.90
6520;DHT22;3293;51.690;5.982;2022-11-18T18:22:39;8.70;99.90
6520;DHT22;3293;51.690;5.982;2022-11-18T18:27:39;8.70;99.90
6520;DHT22;3293;51.690;5.982;2022-11-18T18:32:39;8.70;99.90
6520;DHT22;3293;51.690;5.982;2022-11-18T18:37:39;8.70;99.90
6520;DHT22;3293;51.690;5.982;2022-11-18T18:42:39;8.70;99.90
6520;DHT22;3293;51.690;5.982;2022-11-18T18:47:39;8.70;99.90
6520;DHT22;3293;51.690;5.982;2022-11-18T18:52:39;8.80;99.90
6520;DHT22;3293;51.690;5.982;2022-11-18T18:57:39;8.80;99.90
6520;DHT22;3293;51.690;5.982;2022-11-18T19:02:39;8.80;99.90
6520;DHT22;3293;51.690;5.982;2022-11-18T19:07:41;8.80;99.90
6520;DHT22;3293;51.690;5.982;2022-11-18T19:12:42;8.80;99.90
6520;DHT22;3293;51.690;5.982;2022-11-18T19:17:42;8.80;99.90
6520;DHT22;3293;51.690;5.982;2022-11-18T19:22:42;8.70;99.90
6520;DHT22;3293;51.690;5.982;2022-11-18T19:27:42;8.60;99.90
6520;DHT22;3293;51.690;5.982;2022-11-18T19:32:42;8.60;99.90
6520;DHT22;3293;51.690;5.982;2022-11-18T19:37:42;8.60;99.90
6520;DHT22;3293;51.690;5.982;2022-11-18T19:42:42;8.60;99.90
6520;DHT22;3293;51.690;5.982;2022-11-18T19:47:42;8.60;99.90
6520;DHT22;3293;51.690;5.982;2022-11-18T19:52:42;8.60;99.90
6520;DHT22;3293;51.690;5.982;2022-11-18T19:57:45;8.50;99.90
6520;DHT22;3293;51.690;5.982;2022-11-18T20:02:45;8.50;99.90
6520;DHT22;3293;51.690;5.982;2022-11-18T20:07:45;8.50;99.90
6520;DHT22;3293;51.690;5.982;2022-11-18T20:12:45;8.50;99.90
6520;DHT22;3293;51.690;5.982;2022-11-18T20:17:45;8.40;99.90
6520;DHT22;3293;51.690;5.982;2022-11-18T20:22:45;8.50;99.90
6520;DHT22;3293;51.690;5.982;2022-11-18T20:27:45;8.50;99.90
6520;DHT22;3293;51.690;5.982;2022-11-18T20:32:45;8.60;99.90
6520;DHT22;3293;51.690;5.982;2022-11-18T20:37:45;8.50;99.90
6520;DHT22;3293;51.690;5.982;2022-11-18T20:42:45;8.40;99.90
6520;DHT22;3293;51.690;5.982;2022-11-18T20:48:04;8.40;99.90
6520;DHT22;3293;51.690;5.982;2022-11-18T20:53:04;8.30;99.90
6520;DHT22;3293;51.690;5.982;2022-11-18T20:58:04;8.20;99.90
6520;DHT22;3293;51.690;5.982;2022-11-18T21:03:04;8.10;99.90
6520;DHT22;3293;51.690;5.982;2022-11-18T21:08:05;7.90;99.90
6520;DHT22;3293;51.690;5.982;2022-11-18T21:13:05;7.80;99.90
6520;DHT22;3293;51.690;5.982;2022-11-18T21:18:28;7.70;99.90
6520;DHT22;3293;51.690;5.982;2022-11-18T21:23:28;7.60;99.90
6520;DHT22;3293;51.690;5.982;2022-11-18T21:28:28;7.50;99.90
6520;DHT22;3293;51.690;5.982;2022-11-18T21:33:28;7.30;99.90
6520;DHT22;3293;51.690;5.982;2022-11-18T21:38:27;7.10;99.90
6520;DHT22;3293;51.690;5.982;2022-11-18T21:43:31;7.00;99.90
6520;DHT22;3293;51.690;5.982;2022-11-18T21:48:32;6.80;99.90
6520;DHT22;3293;51.690;5.982;2022-11-18T21:53:32;6.80;99.90
6520;DHT22;3293;51.690;5.982;2022-11-18T21:58:32;6.70;99.90
6520;DHT22;3293;51.690;5.982;2022-11-18T22:03:32;6.60;99.90
6520;DHT22;3293;51.690;5.982;2022-11-18T22:08:34;6.50;99.90
6520;DHT22;3293;51.690;5.982;2022-11-18T22:13:35;6.30;99.90
6520;DHT22;3293;51.690;5.982;2022-11-18T22:18:37;6.20;99.90
6520;DHT22;3293;51.690;5.982;2022-11-18T22:23:38;6.10;99.90
6520;DHT22;3293;51.690;5.982;2022-11-18T22:28:39;6.10;99.90
6520;DHT22;3293;51.690;5.982;2022-11-18T22:33:39;6.10;99.90
6520;DHT22;3293;51.690;5.982;2022-11-18T22:38:41;6.00;99.90
6520;DHT22;3293;51.690;5.982;2022-11-18T22:43:42;6.00;99.90
6520;DHT22;3293;51.690;5.982;2022-11-18T22:48:41;5.80;99.90
6520;DHT22;3293;51.690;5.982;2022-11-18T22:53:41;5.70;99.90
6520;DHT22;3293;51.690;5.982;2022-11-18T22:58:42;5.60;99.90
6520;DHT22;3293;51.690;5.982;2022-11-18T23:03:42;5.60;99.90
6520;DHT22;3293;51.690;5.982;2022-11-18T23:08:42;5.40;99.90
6520;DHT22;3293;51.690;5.982;2022-11-18T23:13:42;5.40;99.90
6520;DHT22;3293;51.690;5.982;2022-11-18T23:18:54;5.40;99.90
6520;DHT22;3293;51.690;5.982;2022-11-18T23:23:54;5.40;99.90
6520;DHT22;3293;51.690;5.982;2022-11-18T23:28:55;5.40;99.90
6520;DHT22;3293;51.690;5.982;2022-11-18T23:33:56;5.50;99.90
6520;DHT22;3293;51.690;5.982;2022-11-18T23:38:56;5.40;99.90
6520;DHT22;3293;51.690;5.982;2022-11-18T23:43:56;5.40;99.90
6520;DHT22;3293;51.690;5.982;2022-11-18T23:48:56;5.40;99.90
6520;DHT22;3293;51.690;5.982;2022-11-18T23:53:56;5.40;99.90
6520;DHT22;3293;51.690;5.982;2022-11-18T23:58:56;5.40;99.90
